Time;durP1;ratioP1;P1;durP2;ratioP2;P2;SDS_P1;SDS_P2;PMS_P1;PMS_P2;Temp;Humidity;BMP_temperature;BMP_pressure;BME280_temperature;BME280_humidity;BME280_pressure;Samples;Min_cycle;Max_cycle;Signal;HPM_P1;HPM_P2
2023/06/25 00:00:49;;;;;;;14.40;6.47;;;;;;;;;;4385224;32;317777;-80
2023/06/25 00:03:16;;;;;;;17.55;6.00;;;;;;;;;;4377875;32;330214;-83
2023/06/25 00:05:44;;;;;;;10.98;6.30;;;;;;;;;;4390772;32;318094;-85
2023/06/25 00:08:11;;;;;;;17.08;7.22;;;;;;;;;;4377560;32;318069;-87
2023/06/25 00:10:41;;;;;;;14.77;7.93;;;;;;;;;;4387532;32;317769;-85
2023/06/25 00:13:08;;;;;;;17.27;8.10;;;;;;;;;;4376723;32;317835;-81
2023/06/25 00:15:36;;;;;;;14.35;8.15;;;;;;;;;;4384964;32;318078;-83
2023/06/25 00:18:05;;;;;;;15.27;8.40;;;;;;;;;;4376601;32;317610;-86
2023/06/25 00:20:32;;;;;;;13.02;7.90;;;;;;;;;;4387521;32;317809;-87
2023/06/25 00:23:00;;;;;;;16.20;9.38;;;;;;;;;;4376835;32;317939;-92
2023/06/25 00:25:27;;;;;;;12.77;9.70;;;;;;;;;;4387231;32;318056;-83
2023/06/25 00:27:57;;;;;;;12.65;9.07;;;;;;;;;;4373717;32;317713;-81
2023/06/25 00:30:25;;;;;;;12.18;9.10;;;;;;;;;;4385202;32;317677;-80
2023/06/25 00:32:54;;;;;;;16.65;11.45;;;;;;;;;;4373885;32;334964;-81
2023/06/25 00:35:27;;;;;;;15.10;9.65;;;;;;;;;;4386702;32;334081;-82
2023/06/25 00:37:57;;;;;;;17.20;9.80;;;;;;;;;;4377024;32;318191;-85
2023/06/25 00:40:25;;;;;;;24.50;11.15;;;;;;;;;;4387170;32;317761;-88
2023/06/25 00:42:56;;;;;;;14.25;9.15;;;;;;;;;;4376028;32;319335;-83
2023/06/25 00:45:26;;;;;;;14.50;9.55;;;;;;;;;;4386044;32;317671;-85
2023/06/25 00:47:54;;;;;;;13.77;9.98;;;;;;;;;;4376609;32;317786;-80
2023/06/25 00:50:23;;;;;;;15.60;10.57;;;;;;;;;;4385647;32;317786;-90
2023/06/25 00:52:51;;;;;;;16.27;10.75;;;;;;;;;;4384947;32;319047;-91
2023/06/25 00:55:19;;;;;;;17.58;10.77;;;;;;;;;;4388378;32;418631;-82
2023/06/25 00:57:47;;;;;;;17.23;10.18;;;;;;;;;;4400789;32;318886;-90
2023/06/25 01:00:16;;;;;;;21.65;11.85;;;;;;;;;;4391052;32;318815;-91
2023/06/25 01:02:47;;;;;;;17.23;10.15;;;;;;;;;;4400722;32;318842;-86
2023/06/25 01:05:21;;;;;;;19.92;9.52;;;;;;;;;;4391088;32;318886;-92
2023/06/25 01:07:50;;;;;;;18.65;9.90;;;;;;;;;;4401660;32;318071;-82
2023/06/25 01:10:18;;;;;;;17.40;9.10;;;;;;;;;;4386540;32;416983;-81
2023/06/25 01:12:46;;;;;;;19.65;8.60;;;;;;;;;;4401761;32;317859;-81
2023/06/25 01:15:13;;;;;;;20.10;9.00;;;;;;;;;;4390984;32;318211;-90
2023/06/25 01:17:41;;;;;;;13.65;8.52;;;;;;;;;;4401401;32;318178;-81
2023/06/25 01:20:11;;;;;;;13.60;9.35;;;;;;;;;;4389914;32;317939;-81
2023/06/25 01:22:41;;;;;;;12.77;9.15;;;;;;;;;;4400346;32;317883;-81
2023/06/25 01:25:09;;;;;;;12.70;9.73;;;;;;;;;;4390807;32;318314;-81
2023/06/25 01:27:37;;;;;;;15.30;10.07;;;;;;;;;;4400372;32;317926;-89
2023/06/25 01:30:07;;;;;;;17.00;9.68;;;;;;;;;;4388700;32;319049;-81
2023/06/25 01:32:35;;;;;;;19.20;8.68;;;;;;;;;;4400484;32;317985;-90
2023/06/25 01:35:02;;;;;;;19.58;9.63;;;;;;;;;;4390617;32;317913;-81
2023/06/25 01:37:30;;;;;;;10.50;8.98;;;;;;;;;;4400354;32;317861;-82
2023/06/25 01:39:59;;;;;;;13.63;9.33;;;;;;;;;;4388722;32;317916;-81
2023/06/25 01:42:27;;;;;;;12.57;9.15;;;;;;;;;;4400245;32;318215;-82
2023/06/25 01:44:54;;;;;;;22.15;8.85;;;;;;;;;;4390868;32;318023;-82
2023/06/25 01:47:21;;;;;;;20.83;10.23;;;;;;;;;;4401144;32;318018;-92
2023/06/25 01:49:49;;;;;;;12.77;9.38;;;;;;;;;;4400047;32;319013;-84
2023/06/25 01:52:16;;;;;;;15.27;8.93;;;;;;;;;;4389642;32;317979;-83
2023/06/25 01:54:43;;;;;;;14.30;8.80;;;;;;;;;;4401361;32;318012;-82
2023/06/25 01:57:12;;;;;;;14.20;9.57;;;;;;;;;;4388694;32;337971;-85
2023/06/25 01:59:40;;;;;;;18.67;10.93;;;;;;;;;;4400313;32;318117;-83
2023/06/25 02:02:07;;;;;;;14.05;9.57;;;;;;;;;;4390321;32;319063;-83
2023/06/25 02:04:35;;;;;;;16.67;9.13;;;;;;;;;;4400189;32;318065;-88
2023/06/25 02:07:02;;;;;;;17.05;9.40;;;;;;;;;;4390053;32;317973;-84
2023/06/25 02:09:29;;;;;;;22.48;9.60;;;;;;;;;;4400986;32;318119;-83
2023/06/25 02:11:57;;;;;;;15.18;9.52;;;;;;;;;;4389025;32;317881;-83
2023/06/25 02:14:26;;;;;;;11.82;8.60;;;;;;;;;;4401139;32;317606;-84
2023/06/25 02:16:53;;;;;;;11.75;9.15;;;;;;;;;;4390188;32;317829;-88
2023/06/25 02:19:20;;;;;;;13.70;9.52;;;;;;;;;;4401099;32;317969;-88
2023/06/25 02:21:47;;;;;;;20.55;10.73;;;;;;;;;;4399945;32;317701;-84
2023/06/25 02:24:15;;;;;;;12.65;9.10;;;;;;;;;;4389506;32;318918;-84
2023/06/25 02:26:42;;;;;;;14.05;10.32;;;;;;;;;;4400427;32;317987;-84
2023/06/25 02:29:10;;;;;;;10.82;8.90;;;;;;;;;;4389944;32;318766;-89
2023/06/25 02:31:39;;;;;;;13.25;9.88;;;;;;;;;;4399593;32;317964;-84
2023/06/25 02:34:06;;;;;;;17.12;10.85;;;;;;;;;;4390829;32;317933;-84
2023/06/25 02:36:33;;;;;;;12.48;10.30;;;;;;;;;;4399888;32;318988;-84
2023/06/25 02:39:01;;;;;;;14.68;9.90;;;;;;;;;;4388699;32;319000;-83
2023/06/25 02:41:28;;;;;;;13.52;10.00;;;;;;;;;;4400389;32;317800;-83
2023/06/25 02:43:55;;;;;;;14.63;8.70;;;;;;;;;;4392800;32;344220;-83
2023/06/25 02:46:23;;;;;;;11.68;9.05;;;;;;;;;;4401689;32;318005;-83
2023/06/25 02:48:52;;;;;;;13.20;9.48;;;;;;;;;;4402854;32;317929;-83
2023/06/25 02:51:19;;;;;;;15.27;10.00;;;;;;;;;;4359363;32;416641;-83
2023/06/25 02:53:47;;;;;;;15.32;9.48;;;;;;;;;;4372185;32;319302;-91
2023/06/25 02:56:14;;;;;;;13.85;9.88;;;;;;;;;;4362748;32;318393;-95
2023/06/25 02:58:41;;;;;;;10.65;8.93;;;;;;;;;;4372504;32;337018;-87
2023/06/25 03:01:09;;;;;;;12.48;9.05;;;;;;;;;;4360591;32;317768;-84
2023/06/25 03:03:36;;;;;;;13.57;8.48;;;;;;;;;;4373272;32;317683;-83
2023/06/25 03:06:06;;;;;;;15.40;9.77;;;;;;;;;;4361580;32;317967;-83
2023/06/25 03:08:33;;;;;;;16.37;8.82;;;;;;;;;;4372817;32;317734;-88
2023/06/25 03:11:01;;;;;;;12.20;8.90;;;;;;;;;;4360682;32;317847;-84
2023/06/25 03:13:28;;;;;;;15.23;8.18;;;;;;;;;;4372854;32;317734;-84
2023/06/25 03:15:55;;;;;;;10.55;8.40;;;;;;;;;;4361213;32;347089;-84
2023/06/25 03:18:23;;;;;;;13.43;9.70;;;;;;;;;;4371986;32;318217;-84
2023/06/25 03:20:50;;;;;;;14.40;8.25;;;;;;;;;;4372600;32;317953;-84
2023/06/25 03:23:19;;;;;;;14.32;9.55;;;;;;;;;;4359424;32;417381;-84
2023/06/25 03:25:46;;;;;;;10.50;7.78;;;;;;;;;;4372408;32;317821;-85
2023/06/25 03:28:14;;;;;;;14.60;6.97;;;;;;;;;;4361403;32;317646;-84
2023/06/25 03:30:41;;;;;;;11.60;7.07;;;;;;;;;;4372390;32;318165;-84
2023/06/25 03:33:09;;;;;;;13.23;6.90;;;;;;;;;;4362804;32;318127;-84
2023/06/25 03:35:36;;;;;;;12.93;7.20;;;;;;;;;;4372170;32;317793;-84
2023/06/25 03:38:03;;;;;;;17.45;7.97;;;;;;;;;;4362691;32;317838;-83
2023/06/25 03:40:32;;;;;;;20.20;7.95;;;;;;;;;;4370300;32;317874;-84
2023/06/25 03:43:00;;;;;;;14.77;8.57;;;;;;;;;;4360219;32;318255;-84
2023/06/25 03:45:27;;;;;;;10.05;7.65;;;;;;;;;;4372323;32;317866;-84
2023/06/25 03:47:55;;;;;;;13.30;7.18;;;;;;;;;;4361239;32;317992;-88
2023/06/25 03:50:22;;;;;;;11.20;7.37;;;;;;;;;;4389981;32;317838;-87
2023/06/25 03:52:50;;;;;;;12.77;7.47;;;;;;;;;;4403474;32;317933;-84
2023/06/25 03:55:17;;;;;;;15.35;7.95;;;;;;;;;;4390623;32;417251;-84
2023/06/25 03:57:46;;;;;;;16.05;7.80;;;;;;;;;;4403173;32;318032;-86
2023/06/25 04:00:14;;;;;;;12.25;7.03;;;;;;;;;;4393116;32;318199;-84
2023/06/25 04:02:41;;;;;;;12.02;7.22;;;;;;;;;;4402348;32;317803;-84
2023/06/25 04:05:09;;;;;;;12.75;7.35;;;;;;;;;;4390364;32;318030;-83
2023/06/25 04:07:37;;;;;;;12.82;7.55;;;;;;;;;;4402031;32;322185;-83
2023/06/25 04:10:04;;;;;;;8.32;6.78;;;;;;;;;;4390373;32;357450;-82
2023/06/25 04:12:32;;;;;;;15.10;7.30;;;;;;;;;;4399643;32;317105;-82
2023/06/25 04:15:04;;;;;;;11.60;7.93;;;;;;;;;;4379642;32;318024;-83
2023/06/25 04:17:32;;;;;;;12.65;7.68;;;;;;;;;;4399614;32;316692;-82
2023/06/25 04:19:59;;;;;;;15.45;9.25;;;;;;;;;;4390732;32;318140;-83
2023/06/25 04:22:27;;;;;;;9.45;6.80;;;;;;;;;;4401184;32;318422;-83
2023/06/25 04:24:54;;;;;;;14.75;8.48;;;;;;;;;;4390948;32;316904;-84
2023/06/25 04:27:21;;;;;;;14.45;6.82;;;;;;;;;;4401255;32;318206;-82
2023/06/25 04:29:49;;;;;;;9.10;6.93;;;;;;;;;;4399199;32;317694;-83
2023/06/25 04:32:17;;;;;;;8.85;7.72;;;;;;;;;;4391678;32;316796;-82
2023/06/25 04:34:45;;;;;;;11.32;6.70;;;;;;;;;;4400967;32;315740;-82
2023/06/25 04:37:12;;;;;;;9.88;7.53;;;;;;;;;;4390293;32;317978;-82
2023/06/25 04:39:40;;;;;;;11.80;6.62;;;;;;;;;;4401387;32;316741;-83
2023/06/25 04:42:08;;;;;;;12.27;7.47;;;;;;;;;;4390720;32;317766;-85
2023/06/25 04:44:35;;;;;;;10.60;6.87;;;;;;;;;;4401902;32;318017;-83
2023/06/25 04:47:02;;;;;;;13.82;7.25;;;;;;;;;;4390855;32;316550;-83
2023/06/25 04:49:31;;;;;;;13.32;8.18;;;;;;;;;;4400433;32;316746;-83
2023/06/25 04:51:59;;;;;;;11.32;7.10;;;;;;;;;;4386306;32;318285;-83
2023/06/25 04:54:26;;;;;;;19.45;7.53;;;;;;;;;;4400953;32;318103;-86
2023/06/25 04:56:53;;;;;;;12.05;7.72;;;;;;;;;;4401201;32;317956;-83
2023/06/25 04:59:21;;;;;;;12.02;7.47;;;;;;;;;;4387672;32;417129;-86
2023/06/25 05:01:48;;;;;;;11.05;7.05;;;;;;;;;;4399681;32;318160;-82
2023/06/25 05:04:16;;;;;;;10.50;7.35;;;;;;;;;;4391047;32;317643;-87
2023/06/25 05:06:45;;;;;;;10.50;7.60;;;;;;;;;;4400416;32;316563;-87
2023/06/25 05:09:12;;;;;;;8.82;7.30;;;;;;;;;;4375784;32;316896;-87
2023/06/25 05:11:39;;;;;;;14.90;7.35;;;;;;;;;;4400954;32;315716;-83
2023/06/25 05:14:07;;;;;;;10.60;7.00;;;;;;;;;;4389884;32;317779;-86
2023/06/25 05:16:34;;;;;;;10.45;7.00;;;;;;;;;;4401572;32;317803;-83
2023/06/25 05:19:02;;;;;;;12.82;7.68;;;;;;;;;;4388471;32;340963;-83
2023/06/25 05:21:29;;;;;;;17.33;8.15;;;;;;;;;;4401367;32;317946;-83
2023/06/25 05:24:03;;;;;;;16.67;7.93;;;;;;;;;;4390828;32;321012;-83
2023/06/25 05:26:30;;;;;;;21.33;7.68;;;;;;;;;;4401445;32;317785;-83
2023/06/25 05:28:59;;;;;;;15.35;6.87;;;;;;;;;;4390077;32;317971;-83
2023/06/25 05:31:27;;;;;;;11.77;7.20;;;;;;;;;;4385987;32;317750;-83
2023/06/25 05:33:55;;;;;;;10.05;7.60;;;;;;;;;;4389876;32;317944;-83
2023/06/25 05:36:23;;;;;;;12.60;6.75;;;;;;;;;;4387258;32;317764;-82
2023/06/25 05:38:50;;;;;;;12.18;7.45;;;;;;;;;;4400516;32;317769;-83
2023/06/25 05:41:20;;;;;;;12.88;6.22;;;;;;;;;;4389643;32;317954;-86
2023/06/25 05:43:47;;;;;;;9.35;6.60;;;;;;;;;;4399824;32;317736;-85
2023/06/25 05:46:15;;;;;;;11.27;5.85;;;;;;;;;;4390712;32;316969;-83
2023/06/25 05:48:42;;;;;;;12.23;6.55;;;;;;;;;;4401835;32;317607;-83
2023/06/25 05:51:10;;;;;;;10.98;6.28;;;;;;;;;;4388961;32;317837;-84
2023/06/25 05:53:42;;;;;;;8.50;5.75;;;;;;;;;;4401727;32;317765;-83
2023/06/25 05:56:09;;;;;;;11.10;6.03;;;;;;;;;;4389246;32;316931;-84
2023/06/25 05:58:38;;;;;;;9.95;6.65;;;;;;;;;;4400799;32;318010;-83
2023/06/25 06:01:05;;;;;;;11.60;5.87;;;;;;;;;;4390843;32;316805;-90
2023/06/25 06:03:33;;;;;;;17.87;6.50;;;;;;;;;;4398642;32;339069;-84
2023/06/25 06:06:01;;;;;;;9.55;6.97;;;;;;;;;;4390815;32;317807;-84
2023/06/25 06:08:28;;;;;;;11.27;6.93;;;;;;;;;;4401123;32;317109;-85
2023/06/25 06:10:56;;;;;;;11.60;7.35;;;;;;;;;;4385805;32;317742;-84
2023/06/25 06:13:23;;;;;;;10.52;7.22;;;;;;;;;;4401269;32;317934;-84
2023/06/25 06:15:52;;;;;;;11.05;7.15;;;;;;;;;;4400997;32;317824;-84
2023/06/25 06:18:19;;;;;;;17.92;6.95;;;;;;;;;;4389658;32;417068;-83
2023/06/25 06:20:47;;;;;;;14.15;6.72;;;;;;;;;;4402831;32;317964;-84
2023/06/25 06:23:14;;;;;;;12.90;6.87;;;;;;;;;;4392768;32;317662;-84
2023/06/25 06:25:42;;;;;;;15.90;6.62;;;;;;;;;;4403434;32;317511;-84
2023/06/25 06:28:09;;;;;;;17.83;7.55;;;;;;;;;;4392420;32;318099;-84
2023/06/25 06:30:36;;;;;;;13.88;7.47;;;;;;;;;;4389604;32;318002;-88
2023/06/25 06:33:05;;;;;;;15.75;8.05;;;;;;;;;;4392564;32;318099;-84
2023/06/25 06:35:33;;;;;;;8.98;6.22;;;;;;;;;;4402686;32;317760;-89
2023/06/25 06:38:00;;;;;;;11.60;7.05;;;;;;;;;;4391656;32;317220;-84
2023/06/25 06:40:27;;;;;;;18.62;7.03;;;;;;;;;;4403576;32;317473;-84
2023/06/25 06:42:55;;;;;;;11.15;6.82;;;;;;;;;;4388801;32;329395;-85
2023/06/25 06:45:22;;;;;;;8.50;6.70;;;;;;;;;;4403272;32;317900;-84
2023/06/25 06:47:49;;;;;;;10.45;5.87;;;;;;;;;;4403811;32;316768;-84
2023/06/25 06:50:18;;;;;;;10.50;6.35;;;;;;;;;;4391755;32;317681;-84
2023/06/25 06:52:46;;;;;;;8.63;6.95;;;;;;;;;;4402735;32;327307;-84
2023/06/25 06:55:13;;;;;;;10.15;6.10;;;;;;;;;;4393631;32;316667;-84
2023/06/25 06:57:41;;;;;;;11.68;6.10;;;;;;;;;;4402360;32;317519;-84
2023/06/25 07:00:09;;;;;;;10.25;5.97;;;;;;;;;;4392676;32;317667;-84
2023/06/25 07:02:37;;;;;;;9.52;5.62;;;;;;;;;;4402810;32;317659;-85
2023/06/25 07:05:05;;;;;;;12.90;5.80;;;;;;;;;;4393582;32;315655;-84
2023/06/25 07:07:34;;;;;;;12.32;6.03;;;;;;;;;;4403322;32;317821;-84
2023/06/25 07:10:01;;;;;;;9.10;5.78;;;;;;;;;;4393106;32;317680;-82
2023/06/25 07:12:29;;;;;;;18.17;7.25;;;;;;;;;;4402967;32;316820;-91
2023/06/25 07:14:56;;;;;;;11.38;5.82;;;;;;;;;;4393121;32;317669;-90
2023/06/25 07:17:24;;;;;;;9.55;6.10;;;;;;;;;;4402333;32;318114;-81
2023/06/25 07:19:51;;;;;;;16.75;7.20;;;;;;;;;;4403125;32;316795;-84
2023/06/25 07:22:19;;;;;;;11.93;6.28;;;;;;;;;;4392398;32;317874;-86
2023/06/25 07:24:48;;;;;;;9.82;5.95;;;;;;;;;;4401816;32;317872;-86
2023/06/25 07:27:15;;;;;;;9.93;6.05;;;;;;;;;;4390560;32;316721;-85
2023/06/25 07:29:43;;;;;;;15.93;7.07;;;;;;;;;;4402215;32;316594;-85
2023/06/25 07:32:10;;;;;;;10.63;6.97;;;;;;;;;;4390156;32;317674;-87
2023/06/25 07:34:37;;;;;;;11.77;7.03;;;;;;;;;;4403058;32;318104;-86
2023/06/25 07:37:06;;;;;;;15.77;7.27;;;;;;;;;;4389515;32;318231;-92
2023/06/25 07:39:34;;;;;;;13.95;6.90;;;;;;;;;;4403164;32;317710;-87
2023/06/25 07:42:05;;;;;;;10.75;6.32;;;;;;;;;;4395481;32;317800;-87
2023/06/25 07:44:33;;;;;;;13.10;6.32;;;;;;;;;;4406751;32;317478;-90
2023/06/25 07:47:00;;;;;;;9.45;6.68;;;;;;;;;;4391005;32;317651;-87
2023/06/25 07:49:27;;;;;;;9.57;6.57;;;;;;;;;;4402580;32;316772;-86
2023/06/25 07:51:55;;;;;;;10.10;6.65;;;;;;;;;;4390180;32;376566;-88
2023/06/25 07:54:22;;;;;;;11.12;6.53;;;;;;;;;;4387663;32;317826;-92
2023/06/25 07:56:50;;;;;;;7.37;6.60;;;;;;;;;;4402325;32;317643;-89
2023/06/25 07:59:19;;;;;;;12.07;6.65;;;;;;;;;;4390514;32;317007;-90
2023/06/25 08:01:46;;;;;;;12.43;6.10;;;;;;;;;;4401850;32;317725;-90
2023/06/25 08:04:14;;;;;;;12.20;6.90;;;;;;;;;;4391032;32;317750;-88
2023/06/25 08:06:41;;;;;;;8.02;6.32;;;;;;;;;;4402769;32;317819;-88
2023/06/25 08:09:09;;;;;;;8.88;5.40;;;;;;;;;;4391647;32;347907;-92
2023/06/25 08:11:37;;;;;;;13.20;6.43;;;;;;;;;;4402299;32;316523;-92
2023/06/25 08:14:04;;;;;;;11.65;6.55;;;;;;;;;;4390055;32;318221;-91
2023/06/25 08:16:33;;;;;;;10.43;6.05;;;;;;;;;;4402604;32;317823;-87
2023/06/25 08:19:00;;;;;;;7.37;5.50;;;;;;;;;;4390484;32;317606;-87
2023/06/25 08:21:28;;;;;;;9.80;5.70;;;;;;;;;;4401107;32;321020;-87
2023/06/25 08:23:56;;;;;;;8.32;5.00;;;;;;;;;;4391287;32;316606;-81
2023/06/25 08:26:23;;;;;;;8.38;5.25;;;;;;;;;;4387879;32;316850;-80
2023/06/25 08:28:52;;;;;;;12.73;4.90;;;;;;;;;;4401605;32;316943;-83
2023/06/25 08:31:21;;;;;;;5.50;4.07;;;;;;;;;;4375333;32;417696;-80
2023/06/25 08:33:50;;;;;;;8.63;4.70;;;;;;;;;;4400863;32;317087;-82
2023/06/25 08:36:17;;;;;;;6.72;4.80;;;;;;;;;;4390531;32;316885;-81
2023/06/25 08:38:44;;;;;;;11.32;4.97;;;;;;;;;;4400658;32;316747;-80
2023/06/25 08:41:12;;;;;;;6.97;4.82;;;;;;;;;;4390647;32;317821;-81
2023/06/25 08:43:39;;;;;;;7.40;4.90;;;;;;;;;;4400628;32;316875;-80
2023/06/25 08:46:08;;;;;;;7.80;4.60;;;;;;;;;;4391327;32;316803;-80
2023/06/25 08:48:39;;;;;;;8.57;5.10;;;;;;;;;;4401751;32;316676;-80
2023/06/25 08:51:13;;;;;;;8.35;5.47;;;;;;;;;;4391107;32;316782;-80
2023/06/25 08:53:41;;;;;;;6.87;4.72;;;;;;;;;;4401628;32;316897;-80
2023/06/25 08:56:08;;;;;;;7.22;4.95;;;;;;;;;;4388405;32;316959;-80
2023/06/25 08:58:36;;;;;;;5.30;4.43;;;;;;;;;;4401074;32;316888;-82
2023/06/25 09:01:03;;;;;;;8.00;4.20;;;;;;;;;;4391460;32;316734;-81
2023/06/25 09:03:31;;;;;;;9.77;5.32;;;;;;;;;;4401510;32;316770;-80
2023/06/25 09:05:58;;;;;;;7.03;4.95;;;;;;;;;;4382642;32;316784;-81
2023/06/25 09:08:29;;;;;;;8.40;5.47;;;;;;;;;;4400689;32;316735;-81
2023/06/25 09:10:57;;;;;;;6.35;4.20;;;;;;;;;;4388828;32;316801;-81
2023/06/25 09:13:26;;;;;;;11.27;4.82;;;;;;;;;;4401548;32;316779;-81
2023/06/25 09:16:00;;;;;;;8.15;5.45;;;;;;;;;;4401437;32;317737;-81
2023/06/25 09:18:29;;;;;;;8.93;4.85;;;;;;;;;;4387251;32;415985;-80
2023/06/25 09:20:57;;;;;;;9.07;4.82;;;;;;;;;;4391436;32;316716;-80
2023/06/25 09:23:26;;;;;;;9.52;5.03;;;;;;;;;;4400109;32;316713;-80
2023/06/25 09:25:54;;;;;;;11.82;5.15;;;;;;;;;;4401560;32;316750;-81
2023/06/25 09:28:22;;;;;;;8.95;4.00;;;;;;;;;;4388224;32;416944;-80
2023/06/25 09:30:49;;;;;;;6.28;4.65;;;;;;;;;;4398693;32;316858;-81
2023/06/25 09:33:17;;;;;;;5.87;4.37;;;;;;;;;;4391119;32;317381;-83
2023/06/25 09:35:44;;;;;;;8.18;4.50;;;;;;;;;;4400800;32;316784;-80
2023/06/25 09:38:12;;;;;;;7.03;4.90;;;;;;;;;;4390944;32;316729;-80
2023/06/25 09:40:41;;;;;;;7.72;4.85;;;;;;;;;;4400347;32;316906;-80
2023/06/25 09:43:09;;;;;;;6.07;4.30;;;;;;;;;;4390062;32;322239;-80
2023/06/25 09:45:38;;;;;;;9.45;4.70;;;;;;;;;;4401147;32;316704;-80
2023/06/25 09:48:08;;;;;;;5.57;3.92;;;;;;;;;;4391305;32;316650;-80
2023/06/25 09:50:40;;;;;;;7.72;4.68;;;;;;;;;;4401221;32;317085;-80
2023/06/25 09:53:10;;;;;;;8.73;4.80;;;;;;;;;;4392069;32;316611;-80
2023/06/25 09:55:40;;;;;;;6.78;4.57;;;;;;;;;;4404354;32;316593;-81
2023/06/25 09:58:08;;;;;;;5.70;4.20;;;;;;;;;;4392979;32;316503;-81
2023/06/25 10:00:35;;;;;;;9.30;5.43;;;;;;;;;;4403154;32;316878;-81
2023/06/25 10:03:04;;;;;;;8.80;4.57;;;;;;;;;;4393728;32;317106;-80
2023/06/25 10:05:32;;;;;;;8.77;4.62;;;;;;;;;;4404122;32;316659;-80
2023/06/25 10:08:00;;;;;;;7.12;4.35;;;;;;;;;;4391890;32;316841;-81
2023/06/25 10:10:29;;;;;;;7.25;4.40;;;;;;;;;;4403167;32;352299;-80
2023/06/25 10:12:58;;;;;;;4.93;3.33;;;;;;;;;;4393744;32;316837;-80
2023/06/25 10:15:29;;;;;;;9.88;4.68;;;;;;;;;;4402951;32;316758;-81
2023/06/25 10:17:59;;;;;;;4.80;3.75;;;;;;;;;;4393485;32;316653;-81
2023/06/25 10:20:28;;;;;;;8.20;4.25;;;;;;;;;;4403017;32;316792;-80
2023/06/25 10:23:09;;;;;;;11.85;4.22;;;;;;;;;;4392673;32;316699;-81
2023/06/25 10:25:39;;;;;;;6.78;4.87;;;;;;;;;;4403138;32;317933;-81
2023/06/25 10:28:10;;;;;;;6.70;4.10;;;;;;;;;;4384174;32;317086;-81
2023/06/25 10:30:40;;;;;;;7.55;5.00;;;;;;;;;;4403494;32;316826;-81
2023/06/25 10:33:08;;;;;;;6.60;4.55;;;;;;;;;;4391056;32;316879;-80
2023/06/25 10:35:41;;;;;;;4.97;4.10;;;;;;;;;;4401185;32;317061;-81
2023/06/25 10:38:09;;;;;;;7.65;4.00;;;;;;;;;;4392459;32;316764;-80
2023/06/25 10:40:37;;;;;;;7.47;4.28;;;;;;;;;;4402815;32;316657;-81
2023/06/25 10:43:05;;;;;;;6.90;4.05;;;;;;;;;;4393321;32;316818;-80
2023/06/25 10:45:34;;;;;;;5.93;3.95;;;;;;;;;;4402399;32;316559;-80
2023/06/25 10:48:08;;;;;;;5.68;4.05;;;;;;;;;;4392713;32;316860;-81
2023/06/25 10:50:36;;;;;;;9.98;3.72;;;;;;;;;;4403180;32;317206;-81
2023/06/25 10:53:08;;;;;;;5.80;3.97;;;;;;;;;;4393078;32;316656;-81
2023/06/25 10:55:37;;;;;;;6.75;4.32;;;;;;;;;;4403639;32;316592;-81
2023/06/25 10:58:04;;;;;;;5.07;4.28;;;;;;;;;;4390856;32;316813;-80
2023/06/25 11:00:33;;;;;;;7.68;4.40;;;;;;;;;;4403065;32;317295;-80
2023/06/25 11:03:01;;;;;;;7.00;4.18;;;;;;;;;;4392247;32;316756;-81
2023/06/25 11:05:36;;;;;;;6.50;4.40;;;;;;;;;;4401439;32;316831;-81
2023/06/25 11:08:06;;;;;;;7.93;4.70;;;;;;;;;;4392687;32;316851;-80
2023/06/25 11:10:34;;;;;;;6.37;3.80;;;;;;;;;;4403313;32;316614;-80
2023/06/25 11:13:01;;;;;;;10.75;4.68;;;;;;;;;;4391712;32;316698;-80
2023/06/25 11:15:33;;;;;;;9.23;4.60;;;;;;;;;;4403055;32;317704;-80
2023/06/25 11:18:03;;;;;;;9.73;5.18;;;;;;;;;;4378813;32;316679;-81
2023/06/25 11:20:32;;;;;;;6.72;3.97;;;;;;;;;;4401688;32;316676;-80
2023/06/25 11:23:01;;;;;;;7.12;3.85;;;;;;;;;;4393117;32;316625;-80
2023/06/25 11:25:30;;;;;;;8.32;4.43;;;;;;;;;;4402313;32;316787;-79
2023/06/25 11:28:05;;;;;;;7.93;4.03;;;;;;;;;;4392488;32;316873;-80
2023/06/25 11:30:34;;;;;;;6.03;4.12;;;;;;;;;;4403101;32;317011;-80
2023/06/25 11:33:10;;;;;;;11.48;3.83;;;;;;;;;;4385401;32;316927;-80
2023/06/25 11:35:37;;;;;;;14.15;4.40;;;;;;;;;;4401959;32;317734;-81
2023/06/25 11:38:05;;;;;;;6.25;3.97;;;;;;;;;;4390462;32;317624;-80
2023/06/25 11:40:34;;;;;;;7.97;3.97;;;;;;;;;;4401941;32;316599;-80
2023/06/25 11:43:01;;;;;;;8.02;4.05;;;;;;;;;;4392503;32;316831;-80
2023/06/25 11:45:42;;;;;;;6.32;4.30;;;;;;;;;;4402787;32;316862;-79
2023/06/25 11:48:14;;;;;;;4.97;4.20;;;;;;;;;;4390004;32;347829;-80
2023/06/25 11:50:42;;;;;;;6.53;4.03;;;;;;;;;;4401498;32;316607;-80
2023/06/25 11:53:10;;;;;;;7.30;4.03;;;;;;;;;;4390183;32;316827;-80
2023/06/25 11:55:38;;;;;;;6.85;4.00;;;;;;;;;;4401424;32;316913;-80
2023/06/25 11:58:06;;;;;;;9.73;4.40;;;;;;;;;;4391310;32;316571;-79
2023/06/25 12:00:33;;;;;;;7.43;4.30;;;;;;;;;;4399818;32;316983;-80
2023/06/25 12:03:02;;;;;;;7.55;4.53;;;;;;;;;;4390327;32;316722;-80
2023/06/25 12:05:30;;;;;;;8.30;4.60;;;;;;;;;;4402075;32;316679;-80
2023/06/25 12:07:57;;;;;;;5.47;4.05;;;;;;;;;;4390025;32;317352;-81
2023/06/25 12:10:26;;;;;;;5.07;3.60;;;;;;;;;;4402058;32;316565;-81
2023/06/25 12:12:54;;;;;;;7.22;4.00;;;;;;;;;;4401320;32;316641;-81
2023/06/25 12:15:22;;;;;;;7.22;3.83;;;;;;;;;;4388557;32;419295;-81
2023/06/25 12:17:49;;;;;;;7.82;5.00;;;;;;;;;;4400812;32;351284;-81
2023/06/25 12:20:18;;;;;;;7.35;4.28;;;;;;;;;;4392041;32;316685;-81
2023/06/25 12:22:46;;;;;;;8.35;3.95;;;;;;;;;;4401728;32;316793;-81
2023/06/25 12:25:13;;;;;;;9.43;4.60;;;;;;;;;;4392214;32;316690;-81
2023/06/25 12:27:40;;;;;;;5.62;3.70;;;;;;;;;;4399669;32;316642;-82
2023/06/25 12:30:09;;;;;;;10.02;4.30;;;;;;;;;;4392006;32;316886;-81
2023/06/25 12:32:36;;;;;;;6.62;4.28;;;;;;;;;;4400929;32;317810;-83
2023/06/25 12:35:04;;;;;;;12.52;4.03;;;;;;;;;;4390358;32;316778;-83
2023/06/25 12:37:33;;;;;;;8.23;4.03;;;;;;;;;;4401284;32;317826;-86
2023/06/25 12:40:00;;;;;;;8.07;4.53;;;;;;;;;;4390996;32;316567;-83
2023/06/25 12:42:27;;;;;;;6.68;4.72;;;;;;;;;;4399741;32;316720;-85
2023/06/25 12:44:55;;;;;;;7.93;3.87;;;;;;;;;;4390991;32;316736;-87
2023/06/25 12:47:22;;;;;;;6.20;3.97;;;;;;;;;;4401431;32;316725;-83
2023/06/25 12:49:50;;;;;;;9.45;4.10;;;;;;;;;;4400669;32;316503;-83
2023/06/25 12:52:17;;;;;;;16.33;4.43;;;;;;;;;;4391433;32;317474;-84
2023/06/25 12:54:46;;;;;;;7.80;4.53;;;;;;;;;;4387511;32;317687;-84
2023/06/25 12:57:13;;;;;;;12.80;4.10;;;;;;;;;;4388571;32;333694;-83
2023/06/25 12:59:41;;;;;;;6.05;4.47;;;;;;;;;;4400575;32;317618;-84
2023/06/25 13:02:08;;;;;;;6.45;4.37;;;;;;;;;;4391329;32;316847;-84
2023/06/25 13:04:35;;;;;;;8.15;4.78;;;;;;;;;;4400114;32;316612;-84
2023/06/25 13:07:03;;;;;;;5.65;3.92;;;;;;;;;;4390592;32;316589;-84
2023/06/25 13:09:32;;;;;;;6.90;4.62;;;;;;;;;;4401562;32;315713;-84
2023/06/25 13:12:01;;;;;;;7.62;4.80;;;;;;;;;;4390256;32;316863;-84
2023/06/25 13:14:29;;;;;;;8.43;4.35;;;;;;;;;;4399841;32;322120;-82
2023/06/25 13:16:59;;;;;;;5.93;4.47;;;;;;;;;;4372013;32;337649;-82
2023/06/25 13:19:27;;;;;;;8.15;4.55;;;;;;;;;;4400932;32;316801;-83
2023/06/25 13:21:54;;;;;;;9.68;4.30;;;;;;;;;;4401107;32;316858;-87
2023/06/25 13:24:22;;;;;;;4.57;3.60;;;;;;;;;;4387324;32;415947;-84
2023/06/25 13:26:51;;;;;;;7.03;3.78;;;;;;;;;;4400922;32;316623;-81
2023/06/25 13:29:20;;;;;;;5.78;3.55;;;;;;;;;;4390982;32;317257;-89
2023/06/25 13:31:48;;;;;;;6.18;3.40;;;;;;;;;;4399419;32;351002;-80
2023/06/25 13:34:15;;;;;;;5.60;3.75;;;;;;;;;;4390085;32;316756;-79
2023/06/25 13:36:43;;;;;;;4.50;2.90;;;;;;;;;;4401438;32;316651;-79
2023/06/25 13:39:10;;;;;;;5.82;3.87;;;;;;;;;;4391034;32;316995;-80
2023/06/25 13:41:37;;;;;;;3.95;3.25;;;;;;;;;;4399985;32;316964;-80
2023/06/25 13:44:05;;;;;;;9.20;3.70;;;;;;;;;;4390168;32;316652;-79
2023/06/25 13:46:33;;;;;;;7.10;3.58;;;;;;;;;;4401469;32;316995;-79
2023/06/25 13:49:01;;;;;;;4.28;3.08;;;;;;;;;;4390965;32;316952;-79
2023/06/25 13:51:28;;;;;;;5.53;3.85;;;;;;;;;;4401407;32;316673;-79
2023/06/25 13:53:55;;;;;;;6.45;3.90;;;;;;;;;;4387961;32;317039;-79
2023/06/25 13:56:23;;;;;;;6.32;3.62;;;;;;;;;;4401061;32;316900;-79
2023/06/25 13:58:50;;;;;;;4.20;3.40;;;;;;;;;;4400852;32;316792;-79
2023/06/25 14:01:17;;;;;;;5.97;3.53;;;;;;;;;;4389752;32;322238;-79
2023/06/25 14:03:49;;;;;;;7.35;3.72;;;;;;;;;;4401344;32;316841;-78
2023/06/25 14:06:16;;;;;;;5.60;3.87;;;;;;;;;;4389378;32;352356;-80
2023/06/25 14:08:44;;;;;;;8.77;4.10;;;;;;;;;;4399757;32;316963;-79
2023/06/25 14:11:11;;;;;;;4.32;3.47;;;;;;;;;;4389899;32;316871;-80
2023/06/25 14:13:38;;;;;;;9.50;3.92;;;;;;;;;;4398471;32;316959;-81
2023/06/25 14:16:06;;;;;;;8.45;3.53;;;;;;;;;;4388301;32;316870;-80
2023/06/25 14:18:33;;;;;;;16.12;3.83;;;;;;;;;;4400684;32;317076;-86
2023/06/25 14:21:02;;;;;;;5.18;3.83;;;;;;;;;;4388291;32;345632;-80
2023/06/25 14:23:30;;;;;;;7.82;3.70;;;;;;;;;;4399481;32;316757;-80
2023/06/25 14:25:57;;;;;;;10.02;3.97;;;;;;;;;;4390904;32;317254;-82